sensor_id;sensor_type;location;lat;lon;timestamp;temperature;humidity
7934;DHT22;4012;48.896;9.192;2022-09-12T00:02:23;14.50;99.90
7934;DHT22;4012;48.896;9.192;2022-09-12T00:04:48;14.40;99.90
7934;DHT22;4012;48.896;9.192;2022-09-12T00:07:14;14.50;99.90
7934;DHT22;4012;48.896;9.192;2022-09-12T00:09:40;14.50;99.90
7934;DHT22;4012;48.896;9.192;2022-09-12T00:12:06;14.50;99.90
7934;DHT22;4012;48.896;9.192;2022-09-12T00:14:32;14.50;99.90
7934;DHT22;4012;48.896;9.192;2022-09-12T00:16:58;14.50;99.90
7934;DHT22;4012;48.896;9.192;2022-09-12T00:19:25;14.60;99.90
7934;DHT22;4012;48.896;9.192;2022-09-12T00:21:51;14.60;99.90
7934;DHT22;4012;48.896;9.192;2022-09-12T00:24:17;14.60;99.90
7934;DHT22;4012;48.896;9.192;2022-09-12T00:26:43;14.60;99.90
7934;DHT22;4012;48.896;9.192;2022-09-12T00:29:20;14.60;99.90
7934;DHT22;4012;48.896;9.192;2022-09-12T00:31:47;14.60;99.90
7934;DHT22;4012;48.896;9.192;2022-09-12T00:34:13;14.60;99.90
7934;DHT22;4012;48.896;9.192;2022-09-12T00:36:39;14.50;99.90
7934;DHT22;4012;48.896;9.192;2022-09-12T00:39:05;14.50;99.90
7934;DHT22;4012;48.896;9.192;2022-09-12T00:41:37;14.50;99.90
7934;DHT22;4012;48.896;9.192;2022-09-12T00:46:47;14.50;99.90
7934;DHT22;4012;48.896;9.192;2022-09-12T00:49:22;14.50;99.90
7934;DHT22;4012;48.896;9.192;2022-09-12T00:51:53;14.40;99.90
7934;DHT22;4012;48.896;9.192;2022-09-12T00:54:26;14.40;99.90
7934;DHT22;4012;48.896;9.192;2022-09-12T00:56:55;14.40;99.90
7934;DHT22;4012;48.896;9.192;2022-09-12T00:59:32;14.30;99.90
7934;DHT22;4012;48.896;9.192;2022-09-12T01:01:59;14.40;99.90
7934;DHT22;4012;48.896;9.192;2022-09-12T01:04:26;14.40;99.90
7934;DHT22;4012;48.896;9.192;2022-09-12T01:06:55;14.30;99.90
7934;DHT22;4012;48.896;9.192;2022-09-12T01:09:23;14.40;99.90
7934;DHT22;4012;48.896;9.192;2022-09-12T01:11:50;14.20;99.90
7934;DHT22;4012;48.896;9.192;2022-09-12T01:14:18;14.20;99.90
7934;DHT22;4012;48.896;9.192;2022-09-12T01:16:46;14.20;99.90
7934;DHT22;4012;48.896;9.192;2022-09-12T01:30:39;14.10;99.90
7934;DHT22;4012;48.896;9.192;2022-09-12T01:38:37;14.10;99.90
7934;DHT22;4012;48.896;9.192;2022-09-12T01:47:05;14.00;99.90
7934;DHT22;4012;48.896;9.192;2022-09-12T01:52:49;13.90;99.90
7934;DHT22;4012;48.896;9.192;2022-09-12T01:55:40;14.00;99.90
7934;DHT22;4012;48.896;9.192;2022-09-12T01:58:24;13.90;99.90
7934;DHT22;4012;48.896;9.192;2022-09-12T02:01:03;13.80;99.90
7934;DHT22;4012;48.896;9.192;2022-09-12T02:03:37;13.80;99.90
7934;DHT22;4012;48.896;9.192;2022-09-12T02:06:07;13.60;99.90
7934;DHT22;4012;48.896;9.192;2022-09-12T02:08:41;13.60;99.90
7934;DHT22;4012;48.896;9.192;2022-09-12T02:11:11;13.50;99.90
7934;DHT22;4012;48.896;9.192;2022-09-12T02:13:59;13.40;99.90
7934;DHT22;4012;48.896;9.192;2022-09-12T02:16:43;13.40;99.90
7934;DHT22;4012;48.896;9.192;2022-09-12T02:19:20;13.40;99.90
7934;DHT22;4012;48.896;9.192;2022-09-12T02:21:53;13.40;99.90
7934;DHT22;4012;48.896;9.192;2022-09-12T02:24:24;13.30;99.90
7934;DHT22;4012;48.896;9.192;2022-09-12T02:26:58;13.30;99.90
7934;DHT22;4012;48.896;9.192;2022-09-12T02:29:24;13.30;99.90
7934;DHT22;4012;48.896;9.192;2022-09-12T02:32:04;13.40;99.90
7934;DHT22;4012;48.896;9.192;2022-09-12T02:34:57;13.50;99.90
7934;DHT22;4012;48.896;9.192;2022-09-12T02:37:39;13.50;99.90
7934;DHT22;4012;48.896;9.192;2022-09-12T02:40:07;13.40;99.90
7934;DHT22;4012;48.896;9.192;2022-09-12T02:42:35;13.20;99.90
7934;DHT22;4012;48.896;9.192;2022-09-12T02:45:01;13.10;99.90
7934;DHT22;4012;48.896;9.192;2022-09-12T02:47:35;13.10;99.90
7934;DHT22;4012;48.896;9.192;2022-09-12T02:50:03;13.10;99.90
7934;DHT22;4012;48.896;9.192;2022-09-12T02:52:30;13.10;99.90
7934;DHT22;4012;48.896;9.192;2022-09-12T02:54:57;13.10;99.90
7934;DHT22;4012;48.896;9.192;2022-09-12T02:57:22;13.10;99.90
7934;DHT22;4012;48.896;9.192;2022-09-12T02:59:49;13.00;99.90
7934;DHT22;4012;48.896;9.192;2022-09-12T03:15:51;12.90;99.90
7934;DHT22;4012;48.896;9.192;2022-09-12T03:23:32;12.90;99.90
7934;DHT22;4012;48.896;9.192;2022-09-12T03:26:05;12.90;99.90
7934;DHT22;4012;48.896;9.192;2022-09-12T03:28:33;12.90;99.90
7934;DHT22;4012;48.896;9.192;2022-09-12T03:30:59;12.90;99.90
7934;DHT22;4012;48.896;9.192;2022-09-12T03:33:35;13.00;99.90
7934;DHT22;4012;48.896;9.192;2022-09-12T03:36:01;13.00;99.90
7934;DHT22;4012;48.896;9.192;2022-09-12T03:38:26;13.00;99.90
7934;DHT22;4012;48.896;9.192;2022-09-12T03:40:52;13.00;99.90
7934;DHT22;4012;48.896;9.192;2022-09-12T03:43:17;13.00;99.90
7934;DHT22;4012;48.896;9.192;2022-09-12T03:45:43;13.00;99.90
7934;DHT22;4012;48.896;9.192;2022-09-12T03:48:09;13.00;99.90
7934;DHT22;4012;48.896;9.192;2022-09-12T03:50:34;13.00;99.90
7934;DHT22;4012;48.896;9.192;2022-09-12T03:53:01;13.00;99.90
7934;DHT22;4012;48.896;9.192;2022-09-12T03:55:27;13.00;99.90
7934;DHT22;4012;48.896;9.192;2022-09-12T03:57:54;13.00;99.90
7934;DHT22;4012;48.896;9.192;2022-09-12T04:00:20;12.90;99.90
7934;DHT22;4012;48.896;9.192;2022-09-12T04:02:46;13.00;99.90
7934;DHT22;4012;48.896;9.192;2022-09-12T04:05:11;13.00;99.90
7934;DHT22;4012;48.896;9.192;2022-09-12T04:07:37;13.00;99.90
7934;DHT22;4012;48.896;9.192;2022-09-12T04:10:03;13.00;99.90
7934;DHT22;4012;48.896;9.192;2022-09-12T04:12:28;13.10;99.90
7934;DHT22;4012;48.896;9.192;2022-09-12T04:14:54;13.00;99.90
7934;DHT22;4012;48.896;9.192;2022-09-12T04:17:20;13.00;99.90
7934;DHT22;4012;48.896;9.192;2022-09-12T04:19:52;13.00;99.90
7934;DHT22;4012;48.896;9.192;2022-09-12T04:22:17;13.10;99.90
7934;DHT22;4012;48.896;9.192;2022-09-12T04:24:43;13.00;99.90
7934;DHT22;4012;48.896;9.192;2022-09-12T04:27:08;13.00;99.90
7934;DHT22;4012;48.896;9.192;2022-09-12T04:29:34;13.00;99.90
7934;DHT22;4012;48.896;9.192;2022-09-12T04:32:00;13.00;99.90
7934;DHT22;4012;48.896;9.192;2022-09-12T04:34:25;13.00;99.90
7934;DHT22;4012;48.896;9.192;2022-09-12T04:36:54;12.90;99.90
7934;DHT22;4012;48.896;9.192;2022-09-12T04:39:19;12.90;99.90
7934;DHT22;4012;48.896;9.192;2022-09-12T04:41:45;12.90;99.90
7934;DHT22;4012;48.896;9.192;2022-09-12T04:44:12;12.90;99.90
7934;DHT22;4012;48.896;9.192;2022-09-12T04:46:40;12.90;99.90
7934;DHT22;4012;48.896;9.192;2022-09-12T04:49:07;12.90;99.90
7934;DHT22;4012;48.896;9.192;2022-09-12T04:51:34;12.90;99.90
7934;DHT22;4012;48.896;9.192;2022-09-12T04:54:06;12.80;99.90
7934;DHT22;4012;48.896;9.192;2022-09-12T04:56:35;12.80;99.90
7934;DHT22;4012;48.896;9.192;2022-09-12T04:59:01;12.80;99.90
7934;DHT22;4012;48.896;9.192;2022-09-12T05:01:27;12.80;99.90
7934;DHT22;4012;48.896;9.192;2022-09-12T05:03:54;12.80;99.90
7934;DHT22;4012;48.896;9.192;2022-09-12T05:06:23;12.80;99.90
7934;DHT22;4012;48.896;9.192;2022-09-12T05:08:50;12.80;99.90
7934;DHT22;4012;48.896;9.192;2022-09-12T05:11:19;12.80;99.90
7934;DHT22;4012;48.896;9.192;2022-09-12T05:13:45;12.90;99.90
7934;DHT22;4012;48.896;9.192;2022-09-12T05:16:13;12.90;99.90
7934;DHT22;4012;48.896;9.192;2022-09-12T05:18:40;12.80;99.90
7934;DHT22;4012;48.896;9.192;2022-09-12T05:21:08;12.90;99.90
7934;DHT22;4012;48.896;9.192;2022-09-12T05:23:35;12.90;99.90
7934;DHT22;4012;48.896;9.192;2022-09-12T05:26:02;12.90;99.90
7934;DHT22;4012;48.896;9.192;2022-09-12T05:28:33;12.80;99.90
7934;DHT22;4012;48.896;9.192;2022-09-12T05:31:11;12.90;99.90
7934;DHT22;4012;48.896;9.192;2022-09-12T05:33:38;12.90;99.90
7934;DHT22;4012;48.896;9.192;2022-09-12T05:36:06;12.90;99.90
7934;DHT22;4012;48.896;9.192;2022-09-12T05:38:36;13.00;99.90
7934;DHT22;4012;48.896;9.192;2022-09-12T05:41:14;13.10;99.90
7934;DHT22;4012;48.896;9.192;2022-09-12T05:43:41;13.10;99.90
7934;DHT22;4012;48.896;9.192;2022-09-12T05:46:13;13.10;99.90
7934;DHT22;4012;48.896;9.192;2022-09-12T05:48:40;13.20;99.90
7934;DHT22;4012;48.896;9.192;2022-09-12T05:51:09;13.30;99.90
7934;DHT22;4012;48.896;9.192;2022-09-12T05:53:39;13.40;99.90
7934;DHT22;4012;48.896;9.192;2022-09-12T05:56:09;13.40;99.90
7934;DHT22;4012;48.896;9.192;2022-09-12T05:58:37;13.50;99.90
7934;DHT22;4012;48.896;9.192;2022-09-12T06:01:11;13.50;99.90
7934;DHT22;4012;48.896;9.192;2022-09-12T06:03:45;13.50;99.90
7934;DHT22;4012;48.896;9.192;2022-09-12T06:06:12;13.50;99.90
7934;DHT22;4012;48.896;9.192;2022-09-12T06:08:39;13.60;99.90
7934;DHT22;4012;48.896;9.192;2022-09-12T06:11:06;13.60;99.90
7934;DHT22;4012;48.896;9.192;2022-09-12T06:13:33;13.60;99.90
7934;DHT22;4012;48.896;9.192;2022-09-12T06:16:07;13.60;99.90
7934;DHT22;4012;48.896;9.192;2022-09-12T06:18:34;13.60;99.90
7934;DHT22;4012;48.896;9.192;2022-09-12T06:21:10;13.70;99.90
7934;DHT22;4012;48.896;9.192;2022-09-12T06:23:38;13.70;99.90
7934;DHT22;4012;48.896;9.192;2022-09-12T06:26:05;13.70;99.90
7934;DHT22;4012;48.896;9.192;2022-09-12T06:28:34;13.80;99.90
7934;DHT22;4012;48.896;9.192;2022-09-12T06:31:02;13.90;99.90
7934;DHT22;4012;48.896;9.192;2022-09-12T06:33:30;14.00;99.90
7934;DHT22;4012;48.896;9.192;2022-09-12T06:36:11;14.00;99.90
7934;DHT22;4012;48.896;9.192;2022-09-12T06:38:37;14.10;99.90
7934;DHT22;4012;48.896;9.192;2022-09-12T06:41:04;14.10;99.90
7934;DHT22;4012;48.896;9.192;2022-09-12T06:43:32;14.10;99.90
7934;DHT22;4012;48.896;9.192;2022-09-12T06:45:58;14.20;99.90
7934;DHT22;4012;48.896;9.192;2022-09-12T06:48:23;14.10;99.90
7934;DHT22;4012;48.896;9.192;2022-09-12T06:51:14;14.30;99.90
7934;DHT22;4012;48.896;9.192;2022-09-12T06:53:41;14.40;99.90
7934;DHT22;4012;48.896;9.192;2022-09-12T06:56:13;14.50;99.90
7934;DHT22;4012;48.896;9.192;2022-09-12T06:58:39;14.70;99.90
7934;DHT22;4012;48.896;9.192;2022-09-12T07:01:09;14.80;99.90
7934;DHT22;4012;48.896;9.192;2022-09-12T07:03:36;14.80;99.90
7934;DHT22;4012;48.896;9.192;2022-09-12T07:06:07;14.80;99.90
7934;DHT22;4012;48.896;9.192;2022-09-12T07:08:34;14.90;99.90
7934;DHT22;4012;48.896;9.192;2022-09-12T07:11:16;15.40;99.90
7934;DHT22;4012;48.896;9.192;2022-09-12T07:13:43;17.90;99.90
7934;DHT22;4012;48.896;9.192;2022-09-12T07:16:09;21.00;99.90
7934;DHT22;4012;48.896;9.192;2022-09-12T07:18:36;23.20;99.90
7934;DHT22;4012;48.896;9.192;2022-09-12T07:21:04;25.00;99.90
7934;DHT22;4012;48.896;9.192;2022-09-12T07:23:30;25.10;99.90
7934;DHT22;4012;48.896;9.192;2022-09-12T07:25:57;26.40;99.90
7934;DHT22;4012;48.896;9.192;2022-09-12T07:28:24;27.10;99.90
7934;DHT22;4012;48.896;9.192;2022-09-12T07:30:50;24.70;99.90
7934;DHT22;4012;48.896;9.192;2022-09-12T07:33:19;26.20;99.90
7934;DHT22;4012;48.896;9.192;2022-09-12T07:35:45;29.60;99.90
7934;DHT22;4012;48.896;9.192;2022-09-12T07:38:10;29.70;99.90
7934;DHT22;4012;48.896;9.192;2022-09-12T07:40:36;30.20;99.90
7934;DHT22;4012;48.896;9.192;2022-09-12T07:43:02;31.10;99.90
7934;DHT22;4012;48.896;9.192;2022-09-12T07:45:27;31.40;99.90
7934;DHT22;4012;48.896;9.192;2022-09-12T07:47:54;30.50;99.90
7934;DHT22;4012;48.896;9.192;2022-09-12T07:50:19;28.70;99.90
7934;DHT22;4012;48.896;9.192;2022-09-12T07:52:45;28.90;99.90
7934;DHT22;4012;48.896;9.192;2022-09-12T07:55:11;31.40;99.90
7934;DHT22;4012;48.896;9.192;2022-09-12T07:57:37;31.30;99.90
7934;DHT22;4012;48.896;9.192;2022-09-12T08:00:04;31.70;99.90
7934;DHT22;4012;48.896;9.192;2022-09-12T08:02:30;31.90;99.90
7934;DHT22;4012;48.896;9.192;2022-09-12T08:04:55;30.80;99.90
7934;DHT22;4012;48.896;9.192;2022-09-12T08:07:21;30.80;99.90
7934;DHT22;4012;48.896;9.192;2022-09-12T08:09:47;31.10;99.90
7934;DHT22;4012;48.896;9.192;2022-09-12T08:12:14;32.00;99.90
7934;DHT22;4012;48.896;9.192;2022-09-12T08:14:41;32.20;99.90
7934;DHT22;4012;48.896;9.192;2022-09-12T08:17:06;32.00;99.90
7934;DHT22;4012;48.896;9.192;2022-09-12T08:19:32;32.00;99.90
7934;DHT22;4012;48.896;9.192;2022-09-12T08:21:57;32.00;99.90
7934;DHT22;4012;48.896;9.192;2022-09-12T08:24:23;31.90;99.90
7934;DHT22;4012;48.896;9.192;2022-09-12T08:26:49;32.30;99.90
7934;DHT22;4012;48.896;9.192;2022-09-12T08:29:15;32.90;99.90
7934;DHT22;4012;48.896;9.192;2022-09-12T08:31:41;32.90;99.90
7934;DHT22;4012;48.896;9.192;2022-09-12T08:34:07;33.90;99.90
7934;DHT22;4012;48.896;9.192;2022-09-12T08:36:33;32.90;99.90
7934;DHT22;4012;48.896;9.192;2022-09-12T08:39:01;32.50;99.90
7934;DHT22;4012;48.896;9.192;2022-09-12T08:41:44;30.50;99.90
7934;DHT22;4012;48.896;9.192;2022-09-12T08:47:37;33.10;99.90
7934;DHT22;4012;48.896;9.192;2022-09-12T08:53:00;28.30;99.90
7934;DHT22;4012;48.896;9.192;2022-09-12T08:55:36;27.60;99.90
7934;DHT22;4012;48.896;9.192;2022-09-12T08:58:24;29.90;99.90
7934;DHT22;4012;48.896;9.192;2022-09-12T09:01:31;30.20;99.90
7934;DHT22;4012;48.896;9.192;2022-09-12T09:07:18;30.60;99.90
7934;DHT22;4012;48.896;9.192;2022-09-12T09:10:11;27.30;99.90
7934;DHT22;4012;48.896;9.192;2022-09-12T09:17:58;31.20;99.90
7934;DHT22;4012;48.896;9.192;2022-09-12T09:20:41;26.80;99.90
7934;DHT22;4012;48.896;9.192;2022-09-12T09:23:26;25.80;99.90
7934;DHT22;4012;48.896;9.192;2022-09-12T09:26:00;27.80;99.90
7934;DHT22;4012;48.896;9.192;2022-09-12T09:31:00;27.80;99.90
7934;DHT22;4012;48.896;9.192;2022-09-12T09:33:31;27.40;99.90
7934;DHT22;4012;48.896;9.192;2022-09-12T09:43:45;30.90;99.90
7934;DHT22;4012;48.896;9.192;2022-09-12T09:46:11;31.80;99.90
7934;DHT22;4012;48.896;9.192;2022-09-12T09:48:42;30.60;99.90
7934;DHT22;4012;48.896;9.192;2022-09-12T09:51:09;28.80;99.90
7934;DHT22;4012;48.896;9.192;2022-09-12T09:53:53;30.00;99.90
7934;DHT22;4012;48.896;9.192;2022-09-12T09:56:28;31.00;99.90
7934;DHT22;4012;48.896;9.192;2022-09-12T09:58:55;31.20;99.90
7934;DHT22;4012;48.896;9.192;2022-09-12T10:01:20;31.60;99.90
7934;DHT22;4012;48.896;9.192;2022-09-12T10:03:54;31.40;99.90
7934;DHT22;4012;48.896;9.192;2022-09-12T10:06:38;29.10;99.90
7934;DHT22;4012;48.896;9.192;2022-09-12T10:09:16;29.40;99.90
7934;DHT22;4012;48.896;9.192;2022-09-12T10:11:42;27.60;99.90
7934;DHT22;4012;48.896;9.192;2022-09-12T10:14:33;26.20;99.90
7934;DHT22;4012;48.896;9.192;2022-09-12T10:17:42;27.50;99.90
7934;DHT22;4012;48.896;9.192;2022-09-12T10:22:55;30.50;99.90
7934;DHT22;4012;48.896;9.192;2022-09-12T10:25:23;31.50;99.90
7934;DHT22;4012;48.896;9.192;2022-09-12T10:27:58;29.20;99.90
7934;DHT22;4012;48.896;9.192;2022-09-12T10:30:25;26.20;99.90
7934;DHT22;4012;48.896;9.192;2022-09-12T10:32:58;26.90;99.90
7934;DHT22;4012;48.896;9.192;2022-09-12T10:35:30;27.90;99.90
7934;DHT22;4012;48.896;9.192;2022-09-12T10:38:16;28.40;99.90
7934;DHT22;4012;48.896;9.192;2022-09-12T10:40:55;28.80;99.90
7934;DHT22;4012;48.896;9.192;2022-09-12T10:43:34;29.20;99.90
7934;DHT22;4012;48.896;9.192;2022-09-12T10:48:48;27.20;99.90
7934;DHT22;4012;48.896;9.192;2022-09-12T10:51:28;26.60;99.90
7934;DHT22;4012;48.896;9.192;2022-09-12T10:53:55;26.20;99.90
7934;DHT22;4012;48.896;9.192;2022-09-12T10:56:31;25.70;99.90
7934;DHT22;4012;48.896;9.192;2022-09-12T10:59:27;26.00;99.90
7934;DHT22;4012;48.896;9.192;2022-09-12T11:01:59;24.50;99.90
7934;DHT22;4012;48.896;9.192;2022-09-12T11:04:36;25.00;99.90
7934;DHT22;4012;48.896;9.192;2022-09-12T11:20:58;25.90;99.90
7934;DHT22;4012;48.896;9.192;2022-09-12T11:27:07;25.40;99.90
7934;DHT22;4012;48.896;9.192;2022-09-12T11:29:59;24.90;99.90
7934;DHT22;4012;48.896;9.192;2022-09-12T11:40:42;25.20;99.90
7934;DHT22;4012;48.896;9.192;2022-09-12T11:43:36;25.50;99.90
7934;DHT22;4012;48.896;9.192;2022-09-12T11:46:22;25.50;99.90
7934;DHT22;4012;48.896;9.192;2022-09-12T11:49:05;25.40;99.90
7934;DHT22;4012;48.896;9.192;2022-09-12T11:52:00;25.60;99.90
7934;DHT22;4012;48.896;9.192;2022-09-12T11:54:44;25.50;99.90
7934;DHT22;4012;48.896;9.192;2022-09-12T12:00:03;25.90;99.90
7934;DHT22;4012;48.896;9.192;2022-09-12T12:02:33;25.40;99.90
7934;DHT22;4012;48.896;9.192;2022-09-12T12:05:36;24.70;99.90
7934;DHT22;4012;48.896;9.192;2022-09-12T12:08:05;24.50;99.90
7934;DHT22;4012;48.896;9.192;2022-09-12T12:10:42;24.20;99.90
7934;DHT22;4012;48.896;9.192;2022-09-12T12:16:06;24.90;99.90
7934;DHT22;4012;48.896;9.192;2022-09-12T12:18:36;25.00;99.90
7934;DHT22;4012;48.896;9.192;2022-09-12T12:21:25;24.70;99.90
7934;DHT22;4012;48.896;9.192;2022-09-12T12:26:56;24.50;99.90
7934;DHT22;4012;48.896;9.192;2022-09-12T12:36:53;25.10;99.90
7934;DHT22;4012;48.896;9.192;2022-09-12T12:42:00;24.90;99.90
7934;DHT22;4012;48.896;9.192;2022-09-12T12:47:24;25.30;99.90
7934;DHT22;4012;48.896;9.192;2022-09-12T12:49:55;25.30;99.90
7934;DHT22;4012;48.896;9.192;2022-09-12T12:52:22;24.90;99.90
7934;DHT22;4012;48.896;9.192;2022-09-12T12:54:52;25.00;99.90
7934;DHT22;4012;48.896;9.192;2022-09-12T12:57:50;25.30;99.90
7934;DHT22;4012;48.896;9.192;2022-09-12T13:00:27;25.20;99.90
7934;DHT22;4012;48.896;9.192;2022-09-12T13:05:46;24.50;99.90
7934;DHT22;4012;48.896;9.192;2022-09-12T13:10:52;24.90;99.90
7934;DHT22;4012;48.896;9.192;2022-09-12T13:13:40;25.00;99.90
7934;DHT22;4012;48.896;9.192;2022-09-12T13:16:10;24.60;99.90
7934;DHT22;4012;48.896;9.192;2022-09-12T13:18:45;24.60;99.90
7934;DHT22;4012;48.896;9.192;2022-09-12T13:21:19;24.70;99.90
7934;DHT22;4012;48.896;9.192;2022-09-12T13:24:12;25.00;99.90
7934;DHT22;4012;48.896;9.192;2022-09-12T13:26:42;25.10;99.90
7934;DHT22;4012;48.896;9.192;2022-09-12T13:29:15;25.00;99.90
7934;DHT22;4012;48.896;9.192;2022-09-12T13:31:43;25.10;99.90
7934;DHT22;4012;48.896;9.192;2022-09-12T13:34:12;25.00;99.90
7934;DHT22;4012;48.896;9.192;2022-09-12T13:39:50;25.30;99.90
7934;DHT22;4012;48.896;9.192;2022-09-12T13:42:40;25.80;99.90
7934;DHT22;4012;48.896;9.192;2022-09-12T13:45:24;25.70;99.90
7934;DHT22;4012;48.896;9.192;2022-09-12T13:47:54;25.70;99.90
7934;DHT22;4012;48.896;9.192;2022-09-12T13:50:23;25.40;99.90
7934;DHT22;4012;48.896;9.192;2022-09-12T13:52:55;25.50;99.90
7934;DHT22;4012;48.896;9.192;2022-09-12T13:55:28;25.30;99.90
7934;DHT22;4012;48.896;9.192;2022-09-12T13:58:01;25.30;99.90
7934;DHT22;4012;48.896;9.192;2022-09-12T14:00:28;25.50;99.90
7934;DHT22;4012;48.896;9.192;2022-09-12T14:02:54;25.50;99.90
7934;DHT22;4012;48.896;9.192;2022-09-12T14:05:42;25.40;99.90
7934;DHT22;4012;48.896;9.192;2022-09-12T14:08:11;25.00;99.90
7934;DHT22;4012;48.896;9.192;2022-09-12T14:10:42;25.20;99.90
7934;DHT22;4012;48.896;9.192;2022-09-12T14:13:34;25.40;99.90
7934;DHT22;4012;48.896;9.192;2022-09-12T14:16:00;25.00;99.90
7934;DHT22;4012;48.896;9.192;2022-09-12T14:18:29;25.10;99.90
7934;DHT22;4012;48.896;9.192;2022-09-12T14:21:07;25.40;99.90
7934;DHT22;4012;48.896;9.192;2022-09-12T14:23:40;25.70;99.90
7934;DHT22;4012;48.896;9.192;2022-09-12T14:26:09;25.70;99.90
7934;DHT22;4012;48.896;9.192;2022-09-12T14:28:41;25.20;99.90
7934;DHT22;4012;48.896;9.192;2022-09-12T14:34:07;24.90;99.90
7934;DHT22;4012;48.896;9.192;2022-09-12T14:36:39;25.00;99.90
7934;DHT22;4012;48.896;9.192;2022-09-12T14:41:47;25.40;99.90
7934;DHT22;4012;48.896;9.192;2022-09-12T14:44:19;25.20;99.90
7934;DHT22;4012;48.896;9.192;2022-09-12T14:46:47;25.30;99.90
7934;DHT22;4012;48.896;9.192;2022-09-12T14:49:34;25.40;99.90
7934;DHT22;4012;48.896;9.192;2022-09-12T14:52:06;25.20;99.90
7934;DHT22;4012;48.896;9.192;2022-09-12T14:57:38;24.80;99.90
7934;DHT22;4012;48.896;9.192;2022-09-12T15:02:37;24.80;99.90
7934;DHT22;4012;48.896;9.192;2022-09-12T15:07:32;24.80;99.90
7934;DHT22;4012;48.896;9.192;2022-09-12T15:10:04;24.80;99.90
7934;DHT22;4012;48.896;9.192;2022-09-12T15:12:31;24.90;99.90
7934;DHT22;4012;48.896;9.192;2022-09-12T15:15:06;25.00;99.90
7934;DHT22;4012;48.896;9.192;2022-09-12T15:17:34;25.10;99.90
7934;DHT22;4012;48.896;9.192;2022-09-12T15:19:59;25.10;99.90
7934;DHT22;4012;48.896;9.192;2022-09-12T15:22:25;25.00;99.90
7934;DHT22;4012;48.896;9.192;2022-09-12T15:24:50;24.90;99.90
7934;DHT22;4012;48.896;9.192;2022-09-12T15:27:16;24.90;99.90
7934;DHT22;4012;48.896;9.192;2022-09-12T15:29:42;24.80;99.90
7934;DHT22;4012;48.896;9.192;2022-09-12T15:32:12;24.70;99.90
7934;DHT22;4012;48.896;9.192;2022-09-12T15:34:39;24.60;99.90
7934;DHT22;4012;48.896;9.192;2022-09-12T15:37:11;24.70;99.90
7934;DHT22;4012;48.896;9.192;2022-09-12T15:39:38;24.70;99.90
7934;DHT22;4012;48.896;9.192;2022-09-12T15:42:03;24.70;99.90
7934;DHT22;4012;48.896;9.192;2022-09-12T15:44:29;24.70;99.90
7934;DHT22;4012;48.896;9.192;2022-09-12T15:46:55;24.70;99.90
7934;DHT22;4012;48.896;9.192;2022-09-12T15:49:20;24.70;99.90
7934;DHT22;4012;48.896;9.192;2022-09-12T15:51:46;24.70;99.90
7934;DHT22;4012;48.896;9.192;2022-09-12T15:54:13;24.70;99.90
7934;DHT22;4012;48.896;9.192;2022-09-12T15:56:39;24.60;99.90
7934;DHT22;4012;48.896;9.192;2022-09-12T15:59:05;24.50;99.90
7934;DHT22;4012;48.896;9.192;2022-09-12T16:01:30;24.40;99.90
7934;DHT22;4012;48.896;9.192;2022-09-12T16:03:56;24.50;99.90
7934;DHT22;4012;48.896;9.192;2022-09-12T16:06:22;24.40;99.90
7934;DHT22;4012;48.896;9.192;2022-09-12T16:08:48;24.30;99.90
7934;DHT22;4012;48.896;9.192;2022-09-12T16:13:42;24.30;99.90
7934;DHT22;4012;48.896;9.192;2022-09-12T16:16:08;24.30;99.90
7934;DHT22;4012;48.896;9.192;2022-09-12T16:18:34;24.30;99.90
7934;DHT22;4012;48.896;9.192;2022-09-12T16:20:59;24.20;99.90
7934;DHT22;4012;48.896;9.192;2022-09-12T16:23:25;24.20;99.90
7934;DHT22;4012;48.896;9.192;2022-09-12T16:26:02;24.10;99.90
7934;DHT22;4012;48.896;9.192;2022-09-12T16:28:28;24.10;99.90
7934;DHT22;4012;48.896;9.192;2022-09-12T16:33:20;24.00;99.90
7934;DHT22;4012;48.896;9.192;2022-09-12T16:35:46;24.00;99.90
7934;DHT22;4012;48.896;9.192;2022-09-12T16:38:11;23.80;99.90
7934;DHT22;4012;48.896;9.192;2022-09-12T16:40:37;23.90;99.90
7934;DHT22;4012;48.896;9.192;2022-09-12T16:43:02;23.80;99.90
7934;DHT22;4012;48.896;9.192;2022-09-12T16:45:28;23.80;99.90
7934;DHT22;4012;48.896;9.192;2022-09-12T16:47:53;23.80;99.90
7934;DHT22;4012;48.896;9.192;2022-09-12T16:50:19;23.70;99.90
7934;DHT22;4012;48.896;9.192;2022-09-12T16:52:45;23.70;99.90
7934;DHT22;4012;48.896;9.192;2022-09-12T16:55:11;23.60;99.90
7934;DHT22;4012;48.896;9.192;2022-09-12T16:57:36;23.60;99.90
7934;DHT22;4012;48.896;9.192;2022-09-12T17:00:03;23.50;99.90
7934;DHT22;4012;48.896;9.192;2022-09-12T17:02:29;23.50;99.90
7934;DHT22;4012;48.896;9.192;2022-09-12T17:04:54;23.40;99.90
7934;DHT22;4012;48.896;9.192;2022-09-12T17:07:20;23.40;99.90
7934;DHT22;4012;48.896;9.192;2022-09-12T17:09:45;23.30;99.90
7934;DHT22;4012;48.896;9.192;2022-09-12T17:12:11;23.20;99.90
7934;DHT22;4012;48.896;9.192;2022-09-12T17:14:37;23.10;99.90
7934;DHT22;4012;48.896;9.192;2022-09-12T17:17:03;23.00;99.90
7934;DHT22;4012;48.896;9.192;2022-09-12T17:19:28;22.90;99.90
7934;DHT22;4012;48.896;9.192;2022-09-12T17:21:55;22.90;99.90
7934;DHT22;4012;48.896;9.192;2022-09-12T17:24:21;22.90;99.90
7934;DHT22;4012;48.896;9.192;2022-09-12T17:26:48;22.90;99.90
7934;DHT22;4012;48.896;9.192;2022-09-12T17:29:14;22.80;99.90
7934;DHT22;4012;48.896;9.192;2022-09-12T17:31:41;22.70;99.90
7934;DHT22;4012;48.896;9.192;2022-09-12T17:34:07;22.70;99.90
7934;DHT22;4012;48.896;9.192;2022-09-12T17:36:33;22.70;99.90
7934;DHT22;4012;48.896;9.192;2022-09-12T17:39:01;22.60;99.90
7934;DHT22;4012;48.896;9.192;2022-09-12T17:41:28;22.40;99.90
7934;DHT22;4012;48.896;9.192;2022-09-12T17:43:57;22.40;99.90
7934;DHT22;4012;48.896;9.192;2022-09-12T17:46:34;22.30;99.90
7934;DHT22;4012;48.896;9.192;2022-09-12T17:49:02;22.30;99.90
7934;DHT22;4012;48.896;9.192;2022-09-12T17:51:29;22.20;99.90
7934;DHT22;4012;48.896;9.192;2022-09-12T17:54:04;22.20;99.90
7934;DHT22;4012;48.896;9.192;2022-09-12T17:56:32;22.00;99.90
7934;DHT22;4012;48.896;9.192;2022-09-12T17:58:59;21.90;99.90
7934;DHT22;4012;48.896;9.192;2022-09-12T18:01:25;21.80;99.90
7934;DHT22;4012;48.896;9.192;2022-09-12T18:04:10;21.80;99.90
7934;DHT22;4012;48.896;9.192;2022-09-12T18:06:36;21.70;99.90
7934;DHT22;4012;48.896;9.192;2022-09-12T18:09:04;21.60;99.90
7934;DHT22;4012;48.896;9.192;2022-09-12T18:11:31;21.60;99.90
7934;DHT22;4012;48.896;9.192;2022-09-12T18:13:57;21.50;99.90
7934;DHT22;4012;48.896;9.192;2022-09-12T18:16:24;21.50;99.90
7934;DHT22;4012;48.896;9.192;2022-09-12T18:18:49;21.60;99.90
7934;DHT22;4012;48.896;9.192;2022-09-12T18:21:15;21.50;99.90
7934;DHT22;4012;48.896;9.192;2022-09-12T18:23:41;21.40;99.90
7934;DHT22;4012;48.896;9.192;2022-09-12T18:26:08;21.40;99.90
7934;DHT22;4012;48.896;9.192;2022-09-12T18:28:36;21.30;99.90
7934;DHT22;4012;48.896;9.192;2022-09-12T18:31:03;21.40;99.90
7934;DHT22;4012;48.896;9.192;2022-09-12T18:33:29;21.30;99.90
7934;DHT22;4012;48.896;9.192;2022-09-12T18:35:54;21.30;99.90
7934;DHT22;4012;48.896;9.192;2022-09-12T18:38:20;21.20;99.90
7934;DHT22;4012;48.896;9.192;2022-09-12T18:40:46;21.10;99.90
7934;DHT22;4012;48.896;9.192;2022-09-12T18:43:11;21.10;99.90
7934;DHT22;4012;48.896;9.192;2022-09-12T18:45:39;21.00;99.90
7934;DHT22;4012;48.896;9.192;2022-09-12T18:48:04;21.00;99.90
7934;DHT22;4012;48.896;9.192;2022-09-12T18:50:31;20.90;99.90
7934;DHT22;4012;48.896;9.192;2022-09-12T18:52:57;20.90;99.90
7934;DHT22;4012;48.896;9.192;2022-09-12T18:55:22;20.90;99.90